createdAt,value
2022-08-19T00:01:53.471Z,13.75
2022-08-19T00:04:24.229Z,15.25
2022-08-19T00:06:52.947Z,16.25
2022-08-19T00:09:22.795Z,13.25
2022-08-19T00:11:51.212Z,16.80
2022-08-19T00:14:19.824Z,12.75
2022-08-19T00:16:48.892Z,19.25
2022-08-19T00:19:17.929Z,12.00
2022-08-19T00:21:45.797Z,15.00
2022-08-19T00:24:16.293Z,15.75
2022-08-19T00:26:45.467Z,18.75
2022-08-19T00:29:15.482Z,11.60
2022-08-19T00:31:44.302Z,12.00
2022-08-19T00:34:13.357Z,11.40
2022-08-19T00:36:42.342Z,14.75
2022-08-19T00:39:10.716Z,15.40
2022-08-19T00:41:39.211Z,15.00
2022-08-19T00:44:08.775Z,13.50
2022-08-19T00:46:39.397Z,12.50
2022-08-19T00:49:33.932Z,21.25
2022-08-19T00:52:33.419Z,11.75
2022-08-19T00:55:02.877Z,14.20
2022-08-19T00:57:41.959Z,11.75
2022-08-19T01:00:13.637Z,14.00
2022-08-19T01:02:43.253Z,12.00
2022-08-19T01:05:19.814Z,12.75
2022-08-19T01:07:48.494Z,10.20
2022-08-19T01:10:20.614Z,13.25
2022-08-19T01:12:49.652Z,14.20
2022-08-19T01:15:21.232Z,15.20
2022-08-19T01:17:50.092Z,11.75
2022-08-19T01:20:24.228Z,12.25
2022-08-19T01:22:55.797Z,13.50
2022-08-19T01:25:29.614Z,10.00
2022-08-19T01:28:01.629Z,8.75
2022-08-19T01:30:36.452Z,11.50
2022-08-19T01:33:06.798Z,14.75
2022-08-19T01:35:36.116Z,11.40
2022-08-19T01:38:09.383Z,14.00
2022-08-19T01:40:40.278Z,13.20
2022-08-19T01:43:07.998Z,14.60
2022-08-19T01:45:36.959Z,16.75
2022-08-19T01:48:05.078Z,14.25
2022-08-19T01:50:34.696Z,13.80
2022-08-19T01:53:06.697Z,15.00
2022-08-19T01:55:41.264Z,14.25
2022-08-19T01:58:21.942Z,14.00
2022-08-19T02:00:50.126Z,13.25
2022-08-19T02:03:17.955Z,11.50
2022-08-19T02:05:46.910Z,14.25
2022-08-19T02:08:14.655Z,13.75
2022-08-19T02:10:44.881Z,11.25
2022-08-19T02:13:14.691Z,14.75
2022-08-19T02:15:42.125Z,13.50
2022-08-19T02:18:10.111Z,13.50
2022-08-19T02:20:39.994Z,15.75
2022-08-19T02:23:13.549Z,12.75
2022-08-19T02:25:45.688Z,11.75
2022-08-19T02:28:18.349Z,12.00
2022-08-19T02:30:48.479Z,14.25
2022-08-19T02:33:16.787Z,14.25
2022-08-19T02:35:47.681Z,16.00
2022-08-19T02:38:28.796Z,10.25
2022-08-19T02:41:04.021Z,12.25
2022-08-19T02:43:33.866Z,12.75
2022-08-19T02:46:03.692Z,14.25
2022-08-19T02:48:34.060Z,14.50
2022-08-19T02:51:01.860Z,14.50
2022-08-19T02:53:29.758Z,9.50
2022-08-19T02:55:57.358Z,15.50
2022-08-19T02:58:25.380Z,15.50
2022-08-19T03:00:56.459Z,9.50
2022-08-19T03:03:24.774Z,10.75
2022-08-19T03:05:56.537Z,13.50
2022-08-19T03:08:25.505Z,13.00
2022-08-19T03:10:54.165Z,16.00
2022-08-19T03:13:22.339Z,6.00
2022-08-19T03:15:50.409Z,15.75
2022-08-19T03:18:18.376Z,13.25
2022-08-19T03:20:48.661Z,10.00
2022-08-19T03:23:19.826Z,12.00
2022-08-19T03:25:58.178Z,14.75
2022-08-19T03:28:33.680Z,13.75
2022-08-19T03:31:44.644Z,12.50
2022-08-19T03:34:04.599Z,13.75
2022-08-19T03:36:36.814Z,11.25
2022-08-19T03:39:04.678Z,11.75
2022-08-19T03:41:44.880Z,11.75
2022-08-19T03:44:21.918Z,13.00
2022-08-19T03:46:56.400Z,11.75
2022-08-19T03:49:28.244Z,11.50
2022-08-19T03:51:58.896Z,10.75
2022-08-19T03:54:27.440Z,10.50
2022-08-19T03:56:57.271Z,11.75
2022-08-19T03:59:30.360Z,13.25
2022-08-19T04:02:00.779Z,12.25
2022-08-19T04:04:29.170Z,10.25
2022-08-19T04:06:57.984Z,13.50
2022-08-19T04:09:25.992Z,16.00
2022-08-19T04:11:56.636Z,12.25
2022-08-19T04:14:31.507Z,13.75
2022-08-19T04:17:14.349Z,13.50
2022-08-19T04:19:44.034Z,7.40
2022-08-19T04:22:12.729Z,10.00
2022-08-19T04:24:44.211Z,10.00
2022-08-19T04:27:11.774Z,12.25
2022-08-19T04:29:40.654Z,12.60
2022-08-19T04:32:09.471Z,8.80
2022-08-19T04:35:02.717Z,11.25
2022-08-19T04:37:34.773Z,12.20
2022-08-19T04:40:25.793Z,12.40
2022-08-19T04:42:54.881Z,10.80
2022-08-19T04:45:23.189Z,12.60
2022-08-19T04:47:58.995Z,10.40
2022-08-19T04:50:43.141Z,11.00
2022-08-19T04:53:11.453Z,10.60
2022-08-19T04:55:43.208Z,11.00
2022-08-19T04:58:11.149Z,10.60
2022-08-19T05:00:41.162Z,10.40
2022-08-19T05:03:09.703Z,8.40
2022-08-19T05:05:44.858Z,10.40
2022-08-19T05:08:15.319Z,10.40
2022-08-19T05:10:43.521Z,7.00
2022-08-19T05:13:12.162Z,7.00
2022-08-19T05:15:40.189Z,7.40
2022-08-19T05:18:26.640Z,9.40
2022-08-19T05:21:14.531Z,8.40
2022-08-19T05:23:42.645Z,8.00
2022-08-19T05:26:12.182Z,7.20
2022-08-19T05:28:39.939Z,7.80
2022-08-19T05:31:08.095Z,4.20
2022-08-19T05:33:35.656Z,9.40
2022-08-19T05:36:04.728Z,6.20
2022-08-19T05:38:32.612Z,1.00
2022-08-19T05:41:00.240Z,7.40
2022-08-19T05:43:28.027Z,7.80
2022-08-19T05:45:56.396Z,7.40
2022-08-19T05:48:24.188Z,4.40
2022-08-19T05:50:51.768Z,8.00
2022-08-19T05:53:20.163Z,6.80
2022-08-19T05:55:47.637Z,4.20
2022-08-19T05:58:15.468Z,7.60
2022-08-19T06:00:45.198Z,7.40
2022-08-19T06:03:13.447Z,7.40
2022-08-19T06:05:42.285Z,4.80
2022-08-19T06:08:19.680Z,6.80
2022-08-19T06:10:47.548Z,5.00
2022-08-19T06:13:15.282Z,6.80
2022-08-19T06:15:45.519Z,7.40
2022-08-19T06:18:14.373Z,6.60
2022-08-19T06:20:55.399Z,5.80
2022-08-19T06:23:25.135Z,5.00
2022-08-19T06:25:52.992Z,8.00
2022-08-19T06:28:21.561Z,6.80
2022-08-19T06:30:49.387Z,6.40
2022-08-19T06:33:17.260Z,7.00
2022-08-19T06:35:46.568Z,6.60
2022-08-19T06:38:14.282Z,3.40
2022-08-19T06:43:09.660Z,6.60
2022-08-19T06:45:39.908Z,6.00
2022-08-19T06:48:08.610Z,5.80
2022-08-19T06:50:36.862Z,4.80
2022-08-19T06:53:07.696Z,7.60
2022-08-19T06:55:36.355Z,4.00
2022-08-19T06:58:05.101Z,8.00
2022-08-19T07:00:33.623Z,6.20
2022-08-19T07:03:06.206Z,7.40
2022-08-19T07:05:45.302Z,6.40
2022-08-19T07:08:14.681Z,6.40
2022-08-19T07:10:50.447Z,6.00
2022-08-19T07:13:18.436Z,7.60
2022-08-19T07:15:48.256Z,6.60
2022-08-19T07:18:21.825Z,4.80
2022-08-19T07:20:49.530Z,4.80
2022-08-19T07:23:17.281Z,6.00
2022-08-19T07:25:52.989Z,6.00
2022-08-19T07:28:25.108Z,6.00
2022-08-19T07:30:54.360Z,9.20
2022-08-19T07:33:23.367Z,6.80
2022-08-19T07:35:51.066Z,6.00
2022-08-19T07:38:18.775Z,5.80
2022-08-19T07:40:47.420Z,7.00
2022-08-19T07:43:17.838Z,9.00
2022-08-19T07:45:49.958Z,6.00
2022-08-19T07:48:17.675Z,8.80
2022-08-19T07:50:45.406Z,7.00
2022-08-19T07:53:20.038Z,5.20
2022-08-19T07:55:49.918Z,4.00
2022-08-19T07:58:23.305Z,7.20
2022-08-19T08:00:52.067Z,4.40
2022-08-19T08:03:21.877Z,5.00
2022-08-19T08:06:16.082Z,4.60
2022-08-19T08:09:03.455Z,6.00
2022-08-19T08:11:46.553Z,4.80
2022-08-19T08:14:29.657Z,5.00
2022-08-19T08:17:51.809Z,5.60
2022-08-19T08:20:30.168Z,5.20
2022-08-19T08:23:24.700Z,5.40
2022-08-19T08:25:54.461Z,5.80
2022-08-19T08:28:40.603Z,4.60
2022-08-19T08:31:29.448Z,1.80
2022-08-19T08:33:57.363Z,4.00
2022-08-19T08:36:28.626Z,0.00
2022-08-19T08:42:09.911Z,4.20
2022-08-19T08:44:51.107Z,5.00
2022-08-19T08:47:25.590Z,3.20
2022-08-19T08:50:05.140Z,4.80
2022-08-19T08:52:45.957Z,4.00
2022-08-19T08:55:20.697Z,0.00
2022-08-19T08:58:15.254Z,0.20
2022-08-19T09:00:50.639Z,6.60
2022-08-19T09:03:24.728Z,2.00
2022-08-19T09:06:12.032Z,5.00
2022-08-19T09:09:16.473Z,3.60
2022-08-19T09:12:03.011Z,4.20
2022-08-19T09:14:53.540Z,4.00
2022-08-19T09:17:40.791Z,5.20
2022-08-19T09:20:15.113Z,7.80
2022-08-19T09:22:51.225Z,4.00
2022-08-19T09:28:55.762Z,4.00
2022-08-19T09:31:45.803Z,3.80
2022-08-19T09:34:25.638Z,4.00
2022-08-19T09:36:57.722Z,1.20
2022-08-19T09:39:35.904Z,3.80
2022-08-19T09:42:16.452Z,5.00
2022-08-19T09:44:49.396Z,5.00
2022-08-19T09:47:21.991Z,5.00
2022-08-19T09:49:57.057Z,3.60
2022-08-19T09:52:33.056Z,6.00
2022-08-19T09:55:07.344Z,3.20
2022-08-19T09:57:44.678Z,4.40
2022-08-19T10:00:15.489Z,4.20
2022-08-19T10:02:45.790Z,4.00
2022-08-19T10:05:34.699Z,6.00
2022-08-19T10:08:05.405Z,4.20
2022-08-19T10:10:46.977Z,4.60
2022-08-19T10:13:29.293Z,4.80
2022-08-19T10:16:09.852Z,4.00
2022-08-19T10:18:38.684Z,2.80
2022-08-19T10:21:15.668Z,4.40
2022-08-19T10:23:46.547Z,4.00
2022-08-19T10:26:20.173Z,4.20
2022-08-19T10:28:48.246Z,6.20
2022-08-19T10:31:19.513Z,5.60
2022-08-19T10:33:53.849Z,6.00
2022-08-19T10:36:24.031Z,7.00
2022-08-19T10:38:56.654Z,3.40
2022-08-19T10:41:28.022Z,7.40
2022-08-19T10:44:04.191Z,6.00
2022-08-19T10:46:36.677Z,5.00
2022-08-19T10:49:06.710Z,5.40
2022-08-19T10:51:53.347Z,5.00
2022-08-19T10:54:24.323Z,3.20
2022-08-19T10:56:59.906Z,6.60
2022-08-19T10:59:35.339Z,2.80
2022-08-19T11:02:06.996Z,6.40
2022-08-19T11:04:35.785Z,4.20
2022-08-19T11:07:05.831Z,4.00
2022-08-19T11:09:40.097Z,5.60
2022-08-19T11:12:08.694Z,3.00
2022-08-19T11:14:36.718Z,6.00
2022-08-19T11:17:06.047Z,5.40
2022-08-19T11:19:34.580Z,5.40
2022-08-19T11:22:05.090Z,5.00
2022-08-19T11:24:33.925Z,5.40
2022-08-19T11:27:08.681Z,7.40
2022-08-19T11:29:38.772Z,7.20
2022-08-19T11:32:12.044Z,7.20
2022-08-19T11:34:40.075Z,4.20
2022-08-19T11:37:10.681Z,6.60
2022-08-19T11:39:39.239Z,4.20
2022-08-19T11:42:26.890Z,5.40
2022-08-19T11:44:55.634Z,8.60
2022-08-19T11:47:23.441Z,7.80
2022-08-19T11:49:51.278Z,7.60
2022-08-19T11:52:18.850Z,5.80
2022-08-19T11:54:46.486Z,5.20
2022-08-19T11:57:16.082Z,6.60
2022-08-19T11:59:44.076Z,7.00
2022-08-19T12:02:12.019Z,6.40
2022-08-19T12:04:39.937Z,6.40
2022-08-19T12:07:07.635Z,6.20
2022-08-19T12:09:35.729Z,6.20
2022-08-19T12:12:03.635Z,7.80
2022-08-19T12:14:33.165Z,8.40
2022-08-19T12:17:01.276Z,4.80
2022-08-19T12:19:29.577Z,6.00
2022-08-19T12:22:02.731Z,6.40
2022-08-19T12:24:32.928Z,4.80
2022-08-19T12:27:03.018Z,5.40
2022-08-19T12:29:31.444Z,1.00
2022-08-19T12:32:03.947Z,6.80
2022-08-19T12:34:33.659Z,6.00
2022-08-19T12:37:04.384Z,6.60
2022-08-19T12:39:36.384Z,4.80
2022-08-19T12:42:04.554Z,5.80
2022-08-19T12:44:33.833Z,6.80
2022-08-19T12:47:02.566Z,5.60
2022-08-19T12:49:52.642Z,4.60
2022-08-19T12:52:28.400Z,5.00
2022-08-19T12:54:57.664Z,5.40
2022-08-19T12:57:32.975Z,6.80
2022-08-19T13:00:23.973Z,5.40
2022-08-19T13:02:53.876Z,5.80
2022-08-19T13:05:25.189Z,4.80
2022-08-19T13:07:58.525Z,6.00
2022-08-19T13:10:31.353Z,5.20
2022-08-19T13:13:00.809Z,4.80
2022-08-19T13:15:29.740Z,7.00
2022-08-19T13:17:58.676Z,1.60
2022-08-19T13:20:27.432Z,6.60
2022-08-19T13:22:55.904Z,5.00
2022-08-19T13:25:23.690Z,5.40
2022-08-19T13:27:52.460Z,6.60
2022-08-19T13:30:40.100Z,3.60
2022-08-19T13:33:12.323Z,6.20
2022-08-19T13:35:51.001Z,6.00
2022-08-19T13:38:21.679Z,5.40
2022-08-19T13:40:51.610Z,6.00
2022-08-19T13:43:23.175Z,6.00
2022-08-19T13:45:57.634Z,6.00
2022-08-19T13:48:31.257Z,6.00
2022-08-19T13:50:59.849Z,5.80
2022-08-19T13:53:27.685Z,6.80
2022-08-19T13:55:55.400Z,6.60
2022-08-19T13:58:23.954Z,4.00
2022-08-19T14:00:51.669Z,6.40
2022-08-19T14:03:19.402Z,6.20
2022-08-19T14:05:47.962Z,9.00
2022-08-19T14:08:15.968Z,6.60
2022-08-19T14:10:45.646Z,3.20
2022-08-19T14:13:17.647Z,6.20
2022-08-19T14:15:45.435Z,5.40
2022-08-19T14:18:13.396Z,5.20
2022-08-19T14:20:41.177Z,5.00
2022-08-19T14:23:08.715Z,5.60
2022-08-19T14:25:36.314Z,6.40
2022-08-19T14:28:04.320Z,5.00
2022-08-19T14:30:34.001Z,7.20
2022-08-19T14:33:03.169Z,8.00
2022-08-19T14:35:35.600Z,6.60
2022-08-19T14:38:06.052Z,7.00
2022-08-19T14:40:34.236Z,7.20
2022-08-19T14:43:05.730Z,5.20
2022-08-19T14:45:37.447Z,6.00
2022-08-19T14:48:18.897Z,3.00
2022-08-19T14:50:47.713Z,7.00
2022-08-19T14:53:17.224Z,5.40
2022-08-19T14:55:46.187Z,6.00
2022-08-19T14:58:28.552Z,3.80
2022-08-19T15:01:00.542Z,4.80
2022-08-19T15:03:30.212Z,6.00
2022-08-19T15:05:58.812Z,6.00
2022-08-19T15:08:27.154Z,6.00
2022-08-19T15:10:54.655Z,6.00
2022-08-19T15:13:22.894Z,8.40
2022-08-19T15:15:50.513Z,7.00
2022-08-19T15:18:18.608Z,6.40
2022-08-19T15:20:46.921Z,6.20
2022-08-19T15:23:19.151Z,8.40
2022-08-19T15:25:47.163Z,6.40
2022-08-19T15:28:16.742Z,8.60
2022-08-19T15:30:44.883Z,7.60
2022-08-19T15:33:16.693Z,7.20
2022-08-19T15:35:44.884Z,8.20
2022-08-19T15:38:14.150Z,4.00
2022-08-19T15:40:43.467Z,8.20
2022-08-19T15:43:11.717Z,7.20
2022-08-19T15:45:40.442Z,7.00
2022-08-19T15:48:08.227Z,7.40
2022-08-19T15:50:36.129Z,8.20
2022-08-19T15:53:09.462Z,7.00
2022-08-19T15:55:44.453Z,8.20
2022-08-19T15:58:33.379Z,9.00
2022-08-19T16:01:24.101Z,7.00
2022-08-19T16:04:14.857Z,9.20
2022-08-19T16:06:50.882Z,6.00
2022-08-19T16:09:26.423Z,7.80
2022-08-19T16:12:02.091Z,9.00
2022-08-19T16:14:34.367Z,8.00
2022-08-19T16:17:02.241Z,6.80
2022-08-19T16:19:31.227Z,7.40
2022-08-19T16:21:58.939Z,8.20
2022-08-19T16:24:29.079Z,6.00
2022-08-19T16:26:57.656Z,6.40
2022-08-19T16:29:34.761Z,5.40
2022-08-19T16:32:10.935Z,24.80
2022-08-19T16:34:40.803Z,34.80
2022-08-19T16:37:08.827Z,7.00
2022-08-19T16:39:36.891Z,24.00
2022-08-19T16:42:07.720Z,171.00
2022-08-19T16:44:36.974Z,317.80
2022-08-19T16:49:56.792Z,30.60
2022-08-19T16:52:27.637Z,221.60
2022-08-19T16:55:01.944Z,535.67
2022-08-19T17:00:55.177Z,301.25
2022-08-19T17:03:36.070Z,373.50
2022-08-19T17:06:18.552Z,18.80
2022-08-19T17:08:53.269Z,40.00
2022-08-19T17:11:22.683Z,12.00
2022-08-19T17:13:51.187Z,56.25
2022-08-19T17:16:27.470Z,43.00
2022-08-19T17:18:57.156Z,65.50
2022-08-19T17:21:28.590Z,31.40
2022-08-19T17:23:57.614Z,39.25
2022-08-19T17:26:26.072Z,15.40
2022-08-19T17:28:56.863Z,13.60
2022-08-19T17:31:26.473Z,9.20
2022-08-19T17:33:55.037Z,7.20
2022-08-19T17:36:24.433Z,5.20
2022-08-19T17:38:53.354Z,5.20
2022-08-19T17:41:21.037Z,6.40
2022-08-19T17:43:48.540Z,6.00
2022-08-19T17:46:18.751Z,8.80
2022-08-19T17:48:52.926Z,15.80
2022-08-19T17:51:43.710Z,33.80
2022-08-19T17:54:15.783Z,6.80
2022-08-19T17:56:44.909Z,11.00
2022-08-19T17:59:14.588Z,19.80
2022-08-19T18:01:53.171Z,5.20
2022-08-19T18:04:24.279Z,127.60
2022-08-19T18:06:54.389Z,52.00
2022-08-19T18:09:38.614Z,108.20
2022-08-19T18:12:15.959Z,192.40
2022-08-19T18:14:43.456Z,80.25
2022-08-19T18:17:17.491Z,59.75
2022-08-19T18:19:46.298Z,83.80
2022-08-19T18:22:25.178Z,145.00
2022-08-19T18:24:52.762Z,42.25
2022-08-19T18:27:20.197Z,57.00
2022-08-19T18:29:48.173Z,5.00
2022-08-19T18:32:23.550Z,39.20
2022-08-19T18:34:52.183Z,17.00
2022-08-19T18:37:19.948Z,12.80
2022-08-19T18:40:06.083Z,16.00
2022-08-19T18:42:51.981Z,27.80
2022-08-19T18:45:38.041Z,39.40
2022-08-19T18:48:27.227Z,90.50
2022-08-19T18:51:01.094Z,235.40
2022-08-19T18:53:32.693Z,73.80
2022-08-19T18:56:00.414Z,34.20
2022-08-19T18:58:36.434Z,18.40
2022-08-19T19:01:19.996Z,86.50
2022-08-19T19:03:53.111Z,83.50
2022-08-19T19:06:27.617Z,51.75
2022-08-19T19:08:57.483Z,7.60
2022-08-19T19:11:34.846Z,17.40
2022-08-19T19:14:05.872Z,28.80
2022-08-19T19:16:33.622Z,16.00
2022-08-19T19:19:01.009Z,17.60
2022-08-19T19:21:31.934Z,12.60
2022-08-19T19:24:02.717Z,36.00
2022-08-19T19:26:30.636Z,15.60
2022-08-19T19:28:58.544Z,10.40
2022-08-19T19:31:29.515Z,8.60
2022-08-19T19:33:57.019Z,8.60
2022-08-19T19:36:24.774Z,8.20
2022-08-19T19:38:53.041Z,10.60
2022-08-19T19:41:25.417Z,9.60
2022-08-19T19:44:16.348Z,20.25
2022-08-19T19:46:43.656Z,10.80
2022-08-19T19:49:11.371Z,15.00
2022-08-19T19:51:39.636Z,17.40
2022-08-19T19:54:13.884Z,51.25
2022-08-19T19:56:43.756Z,15.80
2022-08-19T19:59:11.359Z,63.25
2022-08-19T20:01:38.759Z,82.00
2022-08-19T20:04:07.973Z,21.80
2022-08-19T20:06:35.417Z,12.20
2022-08-19T20:09:10.722Z,48.50
2022-08-19T20:11:45.291Z,6.80
2022-08-19T20:14:16.324Z,8.60
2022-08-19T20:16:46.455Z,9.00
2022-08-19T20:19:17.184Z,8.00
2022-08-19T20:21:50.697Z,6.80
2022-08-19T20:24:22.690Z,9.60
2022-08-19T20:26:53.373Z,6.00
2022-08-19T20:29:39.300Z,8.20
2022-08-19T20:32:10.718Z,8.20
2022-08-19T20:34:39.836Z,9.80
2022-08-19T20:37:09.694Z,8.60
2022-08-19T20:39:38.336Z,8.00
2022-08-19T20:42:06.046Z,6.80
2022-08-19T20:44:33.361Z,7.40
2022-08-19T20:47:03.817Z,8.20
2022-08-19T20:49:32.469Z,8.00
2022-08-19T20:52:00.437Z,6.20
2022-08-19T20:54:28.525Z,11.00
2022-08-19T20:56:56.291Z,6.20
2022-08-19T20:59:24.026Z,8.00
2022-08-19T21:01:52.162Z,7.20
2022-08-19T21:04:21.515Z,8.20
2022-08-19T21:06:50.230Z,9.40
2022-08-19T21:09:17.966Z,8.40
2022-08-19T21:11:45.811Z,5.60
2022-08-19T21:14:13.382Z,4.20
2022-08-19T21:16:40.791Z,6.60
2022-08-19T21:19:08.189Z,7.00
2022-08-19T21:21:36.013Z,6.40
2022-08-19T21:24:03.788Z,9.00
2022-08-19T21:26:31.299Z,6.80
2022-08-19T21:28:58.723Z,3.00
2022-08-19T21:31:26.385Z,7.40
2022-08-19T21:33:54.087Z,12.20
2022-08-19T21:36:21.599Z,6.60
2022-08-19T21:38:49.072Z,6.80
2022-08-19T21:41:16.557Z,6.60
2022-08-19T21:43:44.241Z,8.20
2022-08-19T21:46:11.778Z,7.40
2022-08-19T21:48:39.237Z,6.80
2022-08-19T21:51:07.950Z,6.60
2022-08-19T21:53:37.252Z,7.00
2022-08-19T21:56:08.732Z,6.60
2022-08-19T21:58:39.354Z,6.80
2022-08-19T22:01:08.113Z,5.80
2022-08-19T22:03:37.059Z,5.60
2022-08-19T22:06:05.549Z,4.80
2022-08-19T22:08:33.231Z,6.80
2022-08-19T22:11:01.537Z,5.40
2022-08-19T22:13:39.921Z,5.60
2022-08-19T22:16:08.571Z,5.80
2022-08-19T22:18:36.109Z,4.80
2022-08-19T22:21:06.415Z,3.80
2022-08-19T22:23:37.008Z,5.60
2022-08-19T22:26:04.299Z,5.00
2022-08-19T22:28:31.922Z,7.80
2022-08-19T22:30:59.484Z,3.60
2022-08-19T22:33:27.863Z,4.40
2022-08-19T22:35:56.138Z,4.80
2022-08-19T22:38:25.247Z,4.80
2022-08-19T22:40:53.889Z,8.40
2022-08-19T22:43:26.375Z,3.40
2022-08-19T22:45:55.254Z,3.60
2022-08-19T22:48:26.176Z,4.20
2022-08-19T22:51:12.835Z,5.80
2022-08-19T22:53:42.994Z,3.80
2022-08-19T22:56:15.095Z,4.00
2022-08-19T22:58:44.483Z,3.80
2022-08-19T23:01:27.433Z,6.40
2022-08-19T23:03:59.823Z,5.80
2022-08-19T23:06:33.529Z,6.40
2022-08-19T23:09:07.314Z,4.40
2022-08-19T23:11:39.862Z,4.25
2022-08-19T23:14:10.617Z,6.00
2022-08-19T23:16:38.567Z,5.00
2022-08-19T23:19:07.573Z,4.60
2022-08-19T23:21:36.531Z,4.00
2022-08-19T23:24:04.738Z,3.00
2022-08-19T23:26:35.683Z,6.00
2022-08-19T23:29:24.253Z,4.40
2022-08-19T23:31:52.202Z,3.75
2022-08-19T23:34:19.883Z,6.80
2022-08-19T23:36:48.612Z,7.60
2022-08-19T23:39:16.329Z,4.40
2022-08-19T23:41:44.041Z,4.00
2022-08-19T23:44:14.526Z,4.00
2022-08-19T23:46:54.682Z,5.60
2022-08-19T23:49:25.643Z,6.20
2022-08-19T23:51:54.748Z,3.80
2022-08-19T23:54:22.819Z,5.60
2022-08-19T23:57:03.043Z,3.80
2022-08-19T23:59:42.775Z,6.50
